createdAt,value
2018-05-10T00:01:39.563Z,17.10
2018-05-10T00:04:07.216Z,16.90
2018-05-10T00:06:34.931Z,16.90
2018-05-10T00:09:03.380Z,17.00
2018-05-10T00:11:31.030Z,17.00
2018-05-10T00:13:58.752Z,17.00
2018-05-10T00:16:26.406Z,17.10
2018-05-10T00:18:54.816Z,16.60
2018-05-10T00:21:22.523Z,16.60
2018-05-10T00:23:50.158Z,16.70
2018-05-10T00:26:17.795Z,16.70
2018-05-10T00:28:45.504Z,16.60
2018-05-10T00:31:13.144Z,16.60
2018-05-10T00:33:40.779Z,16.70
2018-05-10T00:36:08.525Z,16.60
2018-05-10T00:38:36.202Z,16.50
2018-05-10T00:41:03.881Z,16.40
2018-05-10T00:43:31.584Z,16.60
2018-05-10T00:45:59.232Z,16.50
2018-05-10T00:48:26.882Z,16.60
2018-05-10T00:50:54.596Z,16.40
2018-05-10T00:53:23.002Z,16.20
2018-05-10T00:55:50.765Z,16.20
2018-05-10T00:58:18.476Z,16.30
2018-05-10T01:00:46.122Z,16.10
2018-05-10T01:03:13.767Z,16.30
2018-05-10T01:05:41.466Z,16.50
2018-05-10T01:08:09.106Z,16.50
2018-05-10T01:10:37.375Z,16.10
2018-05-10T01:13:05.838Z,16.20
2018-05-10T01:15:33.458Z,16.10
2018-05-10T01:18:01.204Z,16.10
2018-05-10T01:20:29.031Z,16.20
2018-05-10T01:22:56.702Z,16.00
2018-05-10T01:25:24.330Z,16.10
2018-05-10T01:27:52.763Z,16.00
2018-05-10T01:30:20.591Z,16.00
2018-05-10T01:32:48.222Z,16.10
2018-05-10T01:35:27.756Z,16.10
2018-05-10T01:37:55.389Z,15.90
2018-05-10T01:40:23.017Z,15.80
2018-05-10T01:42:50.754Z,15.30
2018-05-10T01:45:18.379Z,15.90
2018-05-10T01:47:46.128Z,15.60
2018-05-10T01:50:14.429Z,15.50
2018-05-10T01:52:42.072Z,15.40
2018-05-10T01:55:09.704Z,14.60
2018-05-10T01:57:37.545Z,15.00
2018-05-10T02:00:05.202Z,14.90
2018-05-10T02:02:32.889Z,15.00
2018-05-10T02:05:00.666Z,14.60
2018-05-10T02:07:28.306Z,14.80
2018-05-10T02:09:56.739Z,14.60
2018-05-10T02:12:24.420Z,14.60
2018-05-10T02:14:52.099Z,14.40
2018-05-10T02:17:19.743Z,14.40
2018-05-10T02:19:47.460Z,14.00
2018-05-10T02:22:15.081Z,14.40
2018-05-10T02:24:42.752Z,14.40
2018-05-10T02:27:10.457Z,14.80
2018-05-10T02:29:38.136Z,14.80
2018-05-10T02:32:05.788Z,14.80
2018-05-10T02:34:33.512Z,14.60
2018-05-10T02:37:01.905Z,14.30
2018-05-10T02:39:29.531Z,14.30
2018-05-10T02:41:57.277Z,14.30
2018-05-10T02:44:25.006Z,14.30
2018-05-10T02:46:52.646Z,14.50
2018-05-10T02:49:21.126Z,14.70
2018-05-10T02:51:49.525Z,14.60
2018-05-10T02:54:17.147Z,14.60
2018-05-10T02:56:44.845Z,14.70
2018-05-10T02:59:12.726Z,13.90
2018-05-10T03:01:40.364Z,14.30
2018-05-10T03:04:08.818Z,14.00
2018-05-10T03:06:36.438Z,14.00
2018-05-10T03:09:04.113Z,13.80
2018-05-10T03:11:31.813Z,14.10
2018-05-10T03:13:59.440Z,13.70
2018-05-10T03:16:27.068Z,14.20
2018-05-10T03:18:54.758Z,14.00
2018-05-10T03:21:22.391Z,14.20
2018-05-10T03:23:50.019Z,14.00
2018-05-10T03:26:17.727Z,13.90
2018-05-10T03:28:45.343Z,14.20
2018-05-10T03:31:12.963Z,13.30
2018-05-10T03:33:40.642Z,13.20
2018-05-10T03:36:08.271Z,13.70
2018-05-10T03:38:35.898Z,13.20
2018-05-10T03:41:03.591Z,13.70
2018-05-10T03:43:31.211Z,13.80
2018-05-10T03:45:58.835Z,13.70
2018-05-10T03:48:26.529Z,13.60
2018-05-10T03:50:54.151Z,13.40
2018-05-10T03:53:21.771Z,13.80
2018-05-10T03:55:51.059Z,13.30
2018-05-10T03:58:18.691Z,13.20
2018-05-10T04:00:46.457Z,13.20
2018-05-10T04:03:52.926Z,13.20
2018-05-10T04:06:32.263Z,13.20
2018-05-10T04:09:11.823Z,13.00
2018-05-10T04:11:39.533Z,13.00
2018-05-10T04:14:07.163Z,13.30
2018-05-10T04:16:34.864Z,13.20
2018-05-10T04:19:02.529Z,13.10
2018-05-10T04:21:30.189Z,13.30
2018-05-10T04:23:57.879Z,13.00
2018-05-10T04:26:25.544Z,12.90
2018-05-10T04:28:53.178Z,13.10
2018-05-10T04:31:20.867Z,13.00
2018-05-10T04:33:48.502Z,13.10
2018-05-10T04:36:16.152Z,13.00
2018-05-10T04:38:43.953Z,13.10
2018-05-10T04:41:11.627Z,13.10
2018-05-10T04:43:39.294Z,13.10
2018-05-10T04:46:07.003Z,13.00
2018-05-10T04:48:34.643Z,13.10
2018-05-10T04:51:02.273Z,13.10
2018-05-10T04:53:29.972Z,13.20
2018-05-10T04:55:58.439Z,13.00
2018-05-10T04:58:26.070Z,12.90
2018-05-10T05:00:53.759Z,13.10
2018-05-10T05:03:21.545Z,13.10
2018-05-10T05:05:49.107Z,13.20
2018-05-10T05:08:17.583Z,13.10
2018-05-10T05:10:46.067Z,13.10
2018-05-10T05:13:14.475Z,13.10
2018-05-10T05:15:42.171Z,13.00
2018-05-10T05:18:09.801Z,13.10
2018-05-10T05:20:37.438Z,13.20
2018-05-10T05:23:05.899Z,13.00
2018-05-10T05:25:33.550Z,13.00
2018-05-10T05:28:01.196Z,13.30
2018-05-10T05:30:28.909Z,13.30
2018-05-10T05:32:57.412Z,13.70
2018-05-10T05:35:25.029Z,13.60
2018-05-10T05:37:52.646Z,13.50
2018-05-10T05:40:20.327Z,13.40
2018-05-10T05:42:47.953Z,13.30
2018-05-10T05:45:15.566Z,13.40
2018-05-10T05:47:43.271Z,13.40
2018-05-10T05:50:10.899Z,13.50
2018-05-10T05:52:38.537Z,13.50
2018-05-10T05:55:06.324Z,13.60
2018-05-10T05:57:33.902Z,13.70
2018-05-10T06:00:02.357Z,13.90
2018-05-10T06:02:30.031Z,13.90
2018-05-10T06:04:57.667Z,14.20
2018-05-10T06:07:25.287Z,14.00
2018-05-10T06:09:52.983Z,14.20
2018-05-10T06:12:20.613Z,14.20
2018-05-10T06:14:48.235Z,14.20
2018-05-10T06:17:15.931Z,14.60
2018-05-10T06:19:44.315Z,14.40
2018-05-10T06:22:11.935Z,14.40
2018-05-10T06:24:39.626Z,14.40
2018-05-10T06:27:08.020Z,14.60
2018-05-10T06:29:35.644Z,14.60
2018-05-10T06:32:03.350Z,14.50
2018-05-10T06:34:31.753Z,15.00
2018-05-10T06:36:59.375Z,14.90
2018-05-10T06:39:27.835Z,15.20
2018-05-10T06:41:55.461Z,15.20
2018-05-10T06:44:23.082Z,15.00
2018-05-10T06:46:51.588Z,15.20
2018-05-10T06:49:20.216Z,15.20
2018-05-10T06:51:47.903Z,15.10
2018-05-10T06:54:15.640Z,15.10
2018-05-10T06:56:43.296Z,15.30
2018-05-10T06:59:10.987Z,15.40
2018-05-10T07:01:39.443Z,15.50
2018-05-10T07:04:07.120Z,15.40
2018-05-10T07:06:34.741Z,15.40
2018-05-10T07:09:02.500Z,15.40
2018-05-10T07:11:30.116Z,15.40
2018-05-10T07:13:58.520Z,15.70
2018-05-10T07:16:26.220Z,15.60
2018-05-10T07:18:53.872Z,15.70
2018-05-10T07:21:21.488Z,15.70
2018-05-10T07:23:49.949Z,15.90
2018-05-10T07:26:17.579Z,15.90
2018-05-10T07:28:45.195Z,15.90
2018-05-10T07:31:13.660Z,16.20
2018-05-10T07:33:41.386Z,16.20
2018-05-10T07:36:09.026Z,16.20
2018-05-10T07:38:36.739Z,16.20
2018-05-10T07:41:05.234Z,16.10
2018-05-10T07:43:33.627Z,16.40
2018-05-10T07:46:02.016Z,16.60
2018-05-10T07:48:29.692Z,16.60
2018-05-10T07:50:57.316Z,16.80
2018-05-10T07:53:24.949Z,17.00
2018-05-10T07:55:52.636Z,16.90
2018-05-10T07:58:20.262Z,17.00
2018-05-10T08:00:47.902Z,16.70
2018-05-10T08:03:15.595Z,16.80
2018-05-10T08:05:43.226Z,17.00
2018-05-10T08:08:10.858Z,17.00
2018-05-10T08:10:39.333Z,17.10
2018-05-10T08:13:06.996Z,17.10
2018-05-10T08:15:35.387Z,17.30
2018-05-10T08:18:03.875Z,17.60
2018-05-10T08:20:32.272Z,17.60
2018-05-10T08:22:59.920Z,17.60
2018-05-10T08:25:27.605Z,17.60
2018-05-10T08:27:55.225Z,17.80
2018-05-10T08:30:23.621Z,18.50
2018-05-10T08:32:51.315Z,18.50
2018-05-10T08:35:18.923Z,18.40
2018-05-10T08:37:46.549Z,18.50
2018-05-10T08:40:14.227Z,18.70
2018-05-10T08:42:41.856Z,18.60
2018-05-10T08:45:09.557Z,18.70
2018-05-10T08:47:37.204Z,18.80
2018-05-10T08:50:04.825Z,19.00
2018-05-10T08:52:32.443Z,19.00
2018-05-10T08:55:00.133Z,18.90
2018-05-10T08:57:28.511Z,19.20
2018-05-10T08:59:56.958Z,19.40
2018-05-10T09:02:24.623Z,19.30
2018-05-10T09:04:52.257Z,19.50
2018-05-10T09:07:19.919Z,19.60
2018-05-10T09:09:47.591Z,19.70
2018-05-10T09:12:15.203Z,19.50
2018-05-10T09:14:43.576Z,20.00
2018-05-10T09:17:12.011Z,20.00
2018-05-10T09:19:39.626Z,20.00
2018-05-10T09:22:08.003Z,20.70
2018-05-10T09:24:36.463Z,20.70
2018-05-10T09:27:04.073Z,20.60
2018-05-10T09:29:31.702Z,21.10
2018-05-10T09:32:00.155Z,21.00
2018-05-10T09:34:27.804Z,20.90
2018-05-10T09:36:55.416Z,21.10
2018-05-10T09:39:23.873Z,20.80
2018-05-10T09:41:52.271Z,21.20
2018-05-10T09:44:20.651Z,21.20
2018-05-10T09:46:49.086Z,21.50
2018-05-10T09:49:16.706Z,21.40
2018-05-10T09:51:44.340Z,21.50
2018-05-10T09:54:12.050Z,21.40
2018-05-10T09:56:39.666Z,21.80
2018-05-10T09:59:08.052Z,21.80
2018-05-10T10:01:36.540Z,22.00
2018-05-10T10:04:04.919Z,21.90
2018-05-10T10:06:33.320Z,22.40
2018-05-10T10:09:00.997Z,22.30
2018-05-10T10:11:28.609Z,22.00
2018-05-10T10:13:57.004Z,22.30
2018-05-10T10:16:24.695Z,22.20
2018-05-10T10:18:52.348Z,22.40
2018-05-10T10:21:19.960Z,22.10
2018-05-10T10:23:47.641Z,22.50
2018-05-10T10:26:16.023Z,22.80
2018-05-10T10:28:44.408Z,22.60
2018-05-10T10:31:12.881Z,22.60
2018-05-10T10:33:40.564Z,22.50
2018-05-10T10:36:08.180Z,22.60
2018-05-10T10:38:35.856Z,23.00
2018-05-10T10:41:04.244Z,23.20
2018-05-10T10:43:32.620Z,23.10
2018-05-10T10:46:01.077Z,23.20
2018-05-10T10:48:28.702Z,23.20
2018-05-10T10:50:56.344Z,23.20
2018-05-10T10:53:24.780Z,23.20
2018-05-10T10:55:52.388Z,23.20
2018-05-10T10:58:20.002Z,23.70
2018-05-10T11:00:47.702Z,23.30
2018-05-10T11:03:16.076Z,24.40
2018-05-10T11:05:44.512Z,24.70
2018-05-10T11:08:12.188Z,24.60
2018-05-10T11:10:39.804Z,24.80
2018-05-10T11:13:07.424Z,23.40
2018-05-10T11:15:35.082Z,23.30
2018-05-10T11:18:02.700Z,23.40
2018-05-10T11:20:30.337Z,23.20
2018-05-10T11:22:58.020Z,23.80
2018-05-10T11:25:25.640Z,24.40
2018-05-10T11:27:53.256Z,24.50
2018-05-10T11:30:20.940Z,23.70
2018-05-10T11:32:48.622Z,23.30
2018-05-10T11:35:16.215Z,23.50
2018-05-10T11:37:43.884Z,23.90
2018-05-10T11:40:11.502Z,24.20
2018-05-10T11:42:39.116Z,24.70
2018-05-10T11:45:06.803Z,24.70
2018-05-10T11:47:34.420Z,24.40
2018-05-10T11:50:02.044Z,24.40
2018-05-10T11:52:29.711Z,24.50
2018-05-10T11:54:57.331Z,24.20
2018-05-10T11:57:24.994Z,24.50
2018-05-10T11:59:52.694Z,24.60
2018-05-10T12:02:20.309Z,24.50
2018-05-10T12:04:47.935Z,24.80
2018-05-10T12:07:16.395Z,24.80
2018-05-10T12:09:44.034Z,24.70
2018-05-10T12:12:11.655Z,24.80
2018-05-10T12:14:39.342Z,24.70
2018-05-10T12:17:06.973Z,25.00
2018-05-10T12:19:35.363Z,24.90
2018-05-10T12:22:03.063Z,24.90
2018-05-10T12:24:30.683Z,25.60
2018-05-10T12:26:58.303Z,25.40
2018-05-10T12:29:26.002Z,25.30
2018-05-10T12:31:54.379Z,24.60
2018-05-10T12:34:22.764Z,24.70
2018-05-10T12:36:50.479Z,24.70
2018-05-10T12:39:18.099Z,24.80
2018-05-10T12:41:45.714Z,24.40
2018-05-10T12:44:13.403Z,24.30
2018-05-10T12:46:41.783Z,24.70
2018-05-10T12:49:10.163Z,24.10
2018-05-10T12:51:38.607Z,24.30
2018-05-10T12:54:06.228Z,24.30
2018-05-10T12:56:33.844Z,24.40
2018-05-10T12:59:01.524Z,24.80
2018-05-10T13:01:29.921Z,25.10
2018-05-10T13:03:57.531Z,25.00
2018-05-10T13:06:25.243Z,25.30
2018-05-10T13:08:52.864Z,25.40
2018-05-10T13:11:20.483Z,25.80
2018-05-10T13:13:48.175Z,25.30
2018-05-10T13:16:15.893Z,25.30
2018-05-10T13:18:43.439Z,25.00
2018-05-10T13:21:11.887Z,25.30
2018-05-10T13:23:39.503Z,25.30
2018-05-10T13:26:07.121Z,25.70
2018-05-10T13:28:34.805Z,25.50
2018-05-10T13:31:03.189Z,25.20
2018-05-10T13:33:31.571Z,25.40
2018-05-10T13:36:00.016Z,25.60
2018-05-10T13:38:27.751Z,25.50
2018-05-10T13:40:55.350Z,25.60
2018-05-10T13:43:23.036Z,25.40
2018-05-10T13:45:51.421Z,25.50
2018-05-10T13:48:19.811Z,25.60
2018-05-10T13:50:47.481Z,25.60
2018-05-10T13:53:15.083Z,25.80
2018-05-10T13:55:42.705Z,25.70
2018-05-10T13:58:10.384Z,25.80
2018-05-10T14:00:37.998Z,26.00
2018-05-10T14:03:06.381Z,25.40
2018-05-10T14:05:34.826Z,25.40
2018-05-10T14:08:02.449Z,25.40
2018-05-10T14:10:30.079Z,25.40
2018-05-10T14:12:58.536Z,25.00
2018-05-10T14:15:26.147Z,24.90
2018-05-10T14:17:53.765Z,25.10
2018-05-10T14:20:21.443Z,24.60
2018-05-10T14:22:49.827Z,25.10
2018-05-10T14:25:18.485Z,25.20
2018-05-10T14:27:46.240Z,25.20
2018-05-10T14:30:13.862Z,25.10
2018-05-10T14:32:41.479Z,25.30
2018-05-10T14:35:09.184Z,25.00
2018-05-10T14:37:36.855Z,25.30
2018-05-10T14:40:04.480Z,25.10
2018-05-10T14:42:32.933Z,25.30
2018-05-10T14:45:00.586Z,25.20
2018-05-10T14:47:28.212Z,24.80
2018-05-10T14:49:55.891Z,25.20
2018-05-10T14:52:23.519Z,25.30
2018-05-10T14:54:51.918Z,25.00
2018-05-10T14:57:19.625Z,25.00
2018-05-10T14:59:47.352Z,24.80
2018-05-10T15:02:15.715Z,24.40
2018-05-10T15:04:43.412Z,24.30
2018-05-10T15:07:11.442Z,24.60
2018-05-10T15:09:39.080Z,24.80
2018-05-10T15:12:06.757Z,24.90
2018-05-10T15:14:35.143Z,25.30
2018-05-10T15:17:03.541Z,25.30
2018-05-10T15:19:31.257Z,25.20
2018-05-10T15:21:59.275Z,25.00
2018-05-10T15:24:26.921Z,24.80
2018-05-10T15:26:54.616Z,24.80
2018-05-10T15:29:22.316Z,24.80
2018-05-10T15:31:49.972Z,24.60
2018-05-10T15:34:17.671Z,24.40
2018-05-10T15:36:45.287Z,24.50
2018-05-10T15:39:12.915Z,24.60
2018-05-10T15:41:41.383Z,24.50
2018-05-10T15:44:09.004Z,24.50
2018-05-10T15:46:36.663Z,24.70
2018-05-10T15:49:04.376Z,24.70
2018-05-10T15:51:31.992Z,24.70
2018-05-10T15:53:59.608Z,24.70
2018-05-10T15:56:27.293Z,24.60
2018-05-10T15:58:54.920Z,24.50
2018-05-10T16:01:22.539Z,24.80
2018-05-10T16:03:50.251Z,24.50
2018-05-10T16:06:17.863Z,24.40
2018-05-10T16:08:45.477Z,24.40
2018-05-10T16:11:13.176Z,24.70
2018-05-10T16:13:40.811Z,24.70
2018-05-10T16:16:08.434Z,24.70
2018-05-10T16:18:36.936Z,24.60
2018-05-10T16:21:04.564Z,24.50
2018-05-10T16:23:32.965Z,24.20
2018-05-10T16:26:00.644Z,24.20
2018-05-10T16:28:28.264Z,24.40
2018-05-10T16:30:55.882Z,24.30
2018-05-10T16:33:23.571Z,24.10
2018-05-10T16:35:51.202Z,24.20
2018-05-10T16:38:18.831Z,24.20
2018-05-10T16:40:47.287Z,24.10
2018-05-10T16:43:14.915Z,24.10
2018-05-10T16:45:42.560Z,24.20
2018-05-10T16:48:10.238Z,24.30
2018-05-10T16:50:37.855Z,24.30
2018-05-10T16:53:06.243Z,24.30
2018-05-10T16:55:33.919Z,24.20
2018-05-10T16:58:01.527Z,24.10
2018-05-10T17:00:29.203Z,23.90
2018-05-10T17:02:57.663Z,23.70
2018-05-10T17:05:25.292Z,23.70
2018-05-10T17:07:52.910Z,23.50
2018-05-10T17:10:21.367Z,22.80
2018-05-10T17:12:48.986Z,22.80
2018-05-10T17:15:16.644Z,22.30
2018-05-10T17:17:45.176Z,21.50
2018-05-10T17:20:12.796Z,21.40
2018-05-10T17:22:40.423Z,21.20
2018-05-10T17:25:08.868Z,21.60
2018-05-10T17:27:36.504Z,21.60
2018-05-10T17:30:04.164Z,21.80
2018-05-10T17:32:31.842Z,21.60
2018-05-10T17:34:59.467Z,21.80
2018-05-10T17:37:27.082Z,21.80
2018-05-10T17:39:54.759Z,21.90
2018-05-10T17:42:22.406Z,21.80
2018-05-10T17:44:50.026Z,21.90
2018-05-10T17:47:17.763Z,21.80
2018-05-10T17:49:46.168Z,22.10
2018-05-10T17:52:13.783Z,22.10
2018-05-10T17:54:41.463Z,21.80
2018-05-10T17:57:09.852Z,21.70
2018-05-10T17:59:38.230Z,21.70
2018-05-10T18:02:06.684Z,21.70
2018-05-10T18:04:34.300Z,21.70
2018-05-10T18:07:01.936Z,21.70
2018-05-10T18:09:30.374Z,21.60
2018-05-10T18:11:58.556Z,21.50
2018-05-10T18:14:26.327Z,21.50
2018-05-10T18:16:54.024Z,21.60
2018-05-10T18:19:22.775Z,21.00
2018-05-10T18:21:50.394Z,20.90
2018-05-10T18:24:18.076Z,20.30
2018-05-10T18:26:45.733Z,20.50
2018-05-10T18:29:13.500Z,20.80
2018-05-10T18:31:41.189Z,20.40
2018-05-10T18:34:09.011Z,20.20
2018-05-10T18:36:36.690Z,20.30
2018-05-10T18:39:04.451Z,20.20
2018-05-10T18:41:32.829Z,20.60
2018-05-10T18:44:00.459Z,20.50
2018-05-10T18:46:28.974Z,20.10
2018-05-10T18:48:56.571Z,20.10
2018-05-10T18:51:24.204Z,20.10
2018-05-10T18:53:51.931Z,20.40
2018-05-10T18:56:19.547Z,20.90
2018-05-10T18:58:47.163Z,21.10
2018-05-10T19:01:14.901Z,21.20
2018-05-10T19:03:43.748Z,21.30
2018-05-10T19:06:11.392Z,21.30
2018-05-10T19:08:40.765Z,21.30
2018-05-10T19:11:09.075Z,21.30
2018-05-10T19:13:36.765Z,21.10
2018-05-10T19:16:04.553Z,21.10
2018-05-10T19:18:33.145Z,21.00
2018-05-10T19:21:01.765Z,20.90
2018-05-10T19:23:29.330Z,20.90
2018-05-10T19:25:56.978Z,21.10
2018-05-10T19:28:24.752Z,21.20
2018-05-10T19:30:53.560Z,21.40
2018-05-10T19:33:21.972Z,21.60
2018-05-10T19:35:50.493Z,21.10
2018-05-10T19:38:18.920Z,21.00
2018-05-10T19:40:46.565Z,21.30
2018-05-10T19:43:14.304Z,21.30
2018-05-10T19:45:41.993Z,20.60
2018-05-10T19:48:09.663Z,20.80
2018-05-10T19:50:37.413Z,20.50
2018-05-10T19:53:05.053Z,20.50
2018-05-10T19:55:32.676Z,20.90
2018-05-10T19:58:01.224Z,21.00
2018-05-10T20:00:28.857Z,20.90
2018-05-10T20:02:56.509Z,20.80
2018-05-10T20:05:24.217Z,21.00
2018-05-10T20:07:51.869Z,20.40
2018-05-10T20:10:19.523Z,20.60
2018-05-10T20:12:47.235Z,20.70
2018-05-10T20:15:15.648Z,20.80
2018-05-10T20:17:43.345Z,20.70
2018-05-10T20:20:11.013Z,20.20
2018-05-10T20:22:38.697Z,20.50
2018-05-10T20:25:06.427Z,20.50
2018-05-10T20:27:34.099Z,20.70
2018-05-10T20:30:01.738Z,20.30
2018-05-10T20:32:29.539Z,20.20
2018-05-10T20:34:57.172Z,20.20
2018-05-10T20:37:24.840Z,20.20
2018-05-10T20:39:52.523Z,20.10
2018-05-10T20:42:20.163Z,20.20
2018-05-10T20:44:47.911Z,20.30
2018-05-10T20:47:15.552Z,20.10
2018-05-10T20:49:43.193Z,20.10
2018-05-10T20:52:11.607Z,20.30
2018-05-10T20:54:39.451Z,20.30
2018-05-10T20:57:07.847Z,19.50
2018-05-10T20:59:35.639Z,19.50
2018-05-10T21:02:03.341Z,19.50
2018-05-10T21:04:31.756Z,19.70
2018-05-10T21:06:59.391Z,19.70
2018-05-10T21:09:27.867Z,19.50
2018-05-10T21:11:55.535Z,19.50
2018-05-10T21:14:23.969Z,19.50
2018-05-10T21:16:51.670Z,19.40
2018-05-10T21:19:20.076Z,19.50
2018-05-10T21:21:47.785Z,19.40
2018-05-10T21:24:15.515Z,19.40
2018-05-10T21:26:43.145Z,19.40
2018-05-10T21:29:11.549Z,19.20
2018-05-10T21:31:39.247Z,19.20
2018-05-10T21:34:06.901Z,19.40
2018-05-10T21:36:34.542Z,19.20
2018-05-10T21:39:02.266Z,19.10
2018-05-10T21:41:30.704Z,18.90
2018-05-10T21:43:58.396Z,18.80
2018-05-10T21:46:26.143Z,19.10
2018-05-10T21:48:53.791Z,18.90
2018-05-10T21:51:21.429Z,19.00
2018-05-10T21:53:49.119Z,18.90
2018-05-10T21:56:16.756Z,18.90
2018-05-10T21:58:44.408Z,18.80
2018-05-10T22:01:12.115Z,18.80
2018-05-10T22:03:39.750Z,18.70
2018-05-10T22:06:07.403Z,18.60
2018-05-10T22:08:35.085Z,18.70
2018-05-10T22:11:02.709Z,18.60
2018-05-10T22:13:31.088Z,18.20
2018-05-10T22:15:59.537Z,18.10
2018-05-10T22:18:27.197Z,18.10
2018-05-10T22:20:54.833Z,18.60
2018-05-10T22:23:22.519Z,18.80
2018-05-10T22:25:50.249Z,18.40
2018-05-10T22:28:18.638Z,18.10
2018-05-10T22:30:46.329Z,18.10
2018-05-10T22:33:13.946Z,18.20
2018-05-10T22:35:42.319Z,18.20
2018-05-10T22:38:10.005Z,18.00
2018-05-10T22:40:37.639Z,18.20
2018-05-10T22:43:05.255Z,17.80
2018-05-10T22:45:32.934Z,18.00
2018-05-10T22:48:00.646Z,18.40
2018-05-10T22:50:28.231Z,18.20
2018-05-10T22:52:55.947Z,18.10
2018-05-10T22:55:23.566Z,17.40
2018-05-10T22:57:51.199Z,17.30
2018-05-10T23:00:18.897Z,17.90
2018-05-10T23:02:46.536Z,17.90
2018-05-10T23:05:14.168Z,18.20
2018-05-10T23:07:41.850Z,18.40
2018-05-10T23:10:09.477Z,18.40
2018-05-10T23:12:37.113Z,18.30
2018-05-10T23:15:04.802Z,18.30
2018-05-10T23:17:32.445Z,18.20
2018-05-10T23:20:00.840Z,18.20
2018-05-10T23:22:28.514Z,18.10
2018-05-10T23:24:56.136Z,17.70
2018-05-10T23:27:23.763Z,17.20
2018-05-10T23:29:51.437Z,17.80
2018-05-10T23:32:19.058Z,17.60
2018-05-10T23:34:46.681Z,17.90
2018-05-10T23:37:14.372Z,17.90
2018-05-10T23:39:42.752Z,17.80
2018-05-10T23:42:11.136Z,17.60
2018-05-10T23:44:38.830Z,17.60
2018-05-10T23:47:06.451Z,17.60
2018-05-10T23:49:34.883Z,17.80
2018-05-10T23:52:02.584Z,17.80
2018-05-10T23:54:30.970Z,17.60
2018-05-10T23:56:59.358Z,17.70
2018-05-10T23:59:27.029Z,17.70
